Time;durP1;ratioP1;P1;durP2;ratioP2;P2;SDS_P1;SDS_P2;PMS_P1;PMS_P2;Temp;Humidity;BMP_temperature;BMP_pressure;BME280_temperature;BME280_humidity;BME280_pressure;Samples;Min_cycle;Max_cycle;Signal;HPM_P1;HPM_P2
2021/06/24 00:00:14;;;;;;;10.40;8.07;;;14.50;99.90;;;;;;4977907;28;20190;-68
2021/06/24 00:02:43;;;;;;;9.37;8.47;;;14.50;99.90;;;;;;4975946;28;20412;-68
2021/06/24 00:05:12;;;;;;;13.77;8.30;;;14.50;99.90;;;;;;4980542;28;20194;-67
2021/06/24 00:07:41;;;;;;;9.37;8.10;;;14.50;99.90;;;;;;4979424;28;20179;-68
2021/06/24 00:10:10;;;;;;;11.97;8.47;;;14.50;99.90;;;;;;4978060;28;20183;-67
2021/06/24 00:12:38;;;;;;;12.80;9.03;;;14.50;99.90;;;;;;4977744;28;20484;-68
2021/06/24 00:15:08;;;;;;;9.47;8.17;;;14.50;99.90;;;;;;4980757;28;20230;-67
2021/06/24 00:17:36;;;;;;;10.20;7.90;;;14.40;99.90;;;;;;4980859;28;20203;-68
2021/06/24 00:20:07;;;;;;;11.17;8.80;;;14.40;99.90;;;;;;4980050;28;20183;-67
2021/06/24 00:22:36;;;;;;;11.60;9.70;;;14.40;99.90;;;;;;4979181;28;20188;-67
2021/06/24 00:25:05;;;;;;;10.97;8.20;;;14.40;99.90;;;;;;4980174;28;20436;-68
2021/06/24 00:27:34;;;;;;;10.87;8.47;;;14.40;99.90;;;;;;4980013;28;20340;-67
2021/06/24 00:30:02;;;;;;;11.10;8.73;;;14.40;99.90;;;;;;4979002;28;20188;-68
2021/06/24 00:32:34;;;;;;;11.70;9.00;;;14.40;99.90;;;;;;4980205;28;20196;-67
2021/06/24 00:35:03;;;;;;;13.87;9.07;;;14.40;99.90;;;;;;4984660;28;20226;-67
2021/06/24 00:37:34;;;;;;;10.03;8.73;;;14.40;99.90;;;;;;4982608;28;20195;-68
2021/06/24 00:40:05;;;;;;;12.10;9.60;;;14.40;99.90;;;;;;4982665;28;20198;-67
2021/06/24 00:42:35;;;;;;;15.63;10.17;;;14.40;99.90;;;;;;4984711;28;20189;-67
2021/06/24 00:45:04;;;;;;;17.67;10.30;;;14.40;99.90;;;;;;4999394;28;20313;-67
2021/06/24 00:47:33;;;;;;;12.97;9.60;;;14.40;99.90;;;;;;4984906;28;20204;-68
2021/06/24 00:50:01;;;;;;;11.67;9.40;;;14.40;99.90;;;;;;4983676;28;20198;-68
2021/06/24 00:52:29;;;;;;;17.60;10.77;;;14.40;99.90;;;;;;4976261;28;20190;-68
2021/06/24 00:54:59;;;;;;;14.57;10.17;;;14.40;99.90;;;;;;4982168;28;20275;-67
2021/06/24 00:57:28;;;;;;;19.07;10.80;;;14.30;99.90;;;;;;4984227;28;20186;-68
2021/06/24 00:59:57;;;;;;;11.03;9.87;;;14.40;99.90;;;;;;4982433;28;20339;-67
2021/06/24 01:02:26;;;;;;;12.80;9.40;;;14.40;99.90;;;;;;4983100;28;20183;-68
2021/06/24 01:04:54;;;;;;;16.63;10.70;;;14.40;99.90;;;;;;4982932;28;20195;-68
2021/06/24 01:07:23;;;;;;;14.33;10.50;;;14.40;99.90;;;;;;4983469;28;20206;-67
2021/06/24 01:09:55;;;;;;;15.87;10.87;;;14.40;99.90;;;;;;4984657;28;20202;-67
2021/06/24 01:12:27;;;;;;;18.23;11.03;;;14.30;99.90;;;;;;4978544;28;20204;-67
2021/06/24 01:14:57;;;;;;;17.87;11.30;;;14.30;99.90;;;;;;4979333;28;20207;-67
2021/06/24 01:17:25;;;;;;;14.77;11.77;;;14.30;99.90;;;;;;4982521;28;20190;-68
2021/06/24 01:19:55;;;;;;;16.57;10.73;;;14.30;99.90;;;;;;4984302;28;20230;-68
2021/06/24 01:22:23;;;;;;;17.43;11.43;;;14.30;99.90;;;;;;4977545;28;20196;-68
2021/06/24 01:24:53;;;;;;;16.10;11.30;;;14.30;99.90;;;;;;4983355;28;20238;-67
2021/06/24 01:27:23;;;;;;;17.63;11.13;;;14.30;99.90;;;;;;4984218;28;20219;-67
2021/06/24 01:29:52;;;;;;;14.93;11.30;;;14.30;99.90;;;;;;4981517;28;20187;-68
2021/06/24 01:32:23;;;;;;;15.93;11.43;;;14.30;99.90;;;;;;4982147;28;20324;-67
2021/06/24 01:34:51;;;;;;;15.93;11.50;;;14.30;99.90;;;;;;4981815;28;20248;-67
2021/06/24 01:37:20;;;;;;;15.63;11.97;;;14.30;99.90;;;;;;4984968;28;20385;-67
2021/06/24 01:39:48;;;;;;;19.03;12.90;;;14.30;99.90;;;;;;4982343;28;20341;-68
2021/06/24 01:42:18;;;;;;;18.07;12.10;;;14.20;99.90;;;;;;4984010;28;20222;-68
2021/06/24 01:44:46;;;;;;;17.77;11.83;;;14.30;99.90;;;;;;4973325;28;20360;-68
2021/06/24 01:47:15;;;;;;;16.40;11.83;;;14.30;99.90;;;;;;4983102;28;20215;-67
2021/06/24 01:49:43;;;;;;;15.10;11.80;;;14.20;99.90;;;;;;4982726;28;20238;-67
2021/06/24 01:52:11;;;;;;;18.13;13.13;;;14.20;99.90;;;;;;4978230;28;20191;-67
2021/06/24 01:54:45;;;;;;;17.70;12.07;;;14.20;99.90;;;;;;4982542;28;20224;-68
2021/06/24 01:57:16;;;;;;;19.07;12.70;;;14.20;99.90;;;;;;4981564;28;20220;-68
2021/06/24 01:59:47;;;;;;;16.23;13.07;;;14.20;99.90;;;;;;4979609;28;20191;-68
2021/06/24 02:02:16;;;;;;;19.77;13.63;;;14.20;99.90;;;;;;4983237;28;20183;-68
2021/06/24 02:04:45;;;;;;;18.43;12.73;;;14.20;99.90;;;;;;4983365;28;20250;-67
2021/06/24 02:07:15;;;;;;;15.07;13.37;;;14.20;99.90;;;;;;4985304;28;20253;-67
2021/06/24 02:09:43;;;;;;;19.83;14.03;;;14.10;99.90;;;;;;4983115;28;20336;-68
2021/06/24 02:12:12;;;;;;;17.53;13.67;;;14.10;99.90;;;;;;4981636;28;20196;-67
2021/06/24 02:14:41;;;;;;;19.63;13.57;;;14.00;99.90;;;;;;4982954;28;20262;-68
2021/06/24 02:17:10;;;;;;;16.37;13.90;;;13.90;99.90;;;;;;4981515;28;20521;-67
2021/06/24 02:19:38;;;;;;;20.77;14.50;;;13.90;99.90;;;;;;4982190;28;20444;-68
2021/06/24 02:22:10;;;;;;;25.20;13.97;;;13.80;99.90;;;;;;4982464;28;20214;-67
2021/06/24 02:24:38;;;;;;;24.47;15.57;;;13.80;99.90;;;;;;4981686;28;20175;-67
2021/06/24 02:27:07;;;;;;;19.87;14.00;;;13.70;99.90;;;;;;4983635;28;20214;-68
2021/06/24 02:29:35;;;;;;;18.67;13.37;;;13.70;99.90;;;;;;4983366;28;20183;-68
2021/06/24 02:32:04;;;;;;;21.67;14.60;;;13.70;99.90;;;;;;4983571;28;20183;-67
2021/06/24 02:34:36;;;;;;;21.90;14.97;;;13.70;99.90;;;;;;4980909;28;20451;-68
2021/06/24 02:37:05;;;;;;;24.83;14.93;;;13.60;99.90;;;;;;4976873;28;20230;-67
2021/06/24 02:39:33;;;;;;;22.83;14.97;;;13.60;99.90;;;;;;4980240;28;20424;-68
2021/06/24 02:42:01;;;;;;;24.07;16.03;;;13.60;99.90;;;;;;4983636;28;20183;-67
2021/06/24 02:44:30;;;;;;;21.60;15.67;;;13.50;99.90;;;;;;4981054;28;20352;-68
2021/06/24 02:46:58;;;;;;;22.00;15.73;;;13.50;99.90;;;;;;4981649;28;20207;-68
2021/06/24 02:49:27;;;;;;;21.57;15.90;;;13.40;99.90;;;;;;4981591;28;20196;-67
2021/06/24 02:51:57;;;;;;;22.97;15.90;;;13.40;99.90;;;;;;4979547;28;20207;-68
2021/06/24 02:54:25;;;;;;;22.10;15.93;;;13.40;99.90;;;;;;4981123;28;20510;-67
2021/06/24 02:56:53;;;;;;;21.13;17.57;;;13.40;99.90;;;;;;4982972;28;20463;-67
2021/06/24 02:59:21;;;;;;;23.30;16.23;;;13.40;99.90;;;;;;4981982;28;20348;-68
2021/06/24 03:01:50;;;;;;;24.40;16.30;;;13.40;99.90;;;;;;4981484;28;20206;-67
2021/06/24 03:04:21;;;;;;;26.20;18.23;;;13.40;99.90;;;;;;4981753;28;20435;-68
2021/06/24 03:06:50;;;;;;;27.87;17.57;;;13.40;99.90;;;;;;4980303;28;20187;-68
2021/06/24 03:09:21;;;;;;;22.63;17.80;;;13.50;99.90;;;;;;4980251;28;20183;-68
2021/06/24 03:11:49;;;;;;;24.17;17.27;;;13.50;99.90;;;;;;4981846;28;20258;-67
2021/06/24 03:14:17;;;;;;;26.00;16.50;;;13.50;99.90;;;;;;4976774;28;20179;-68
2021/06/24 03:16:46;;;;;;;23.53;16.77;;;13.60;99.90;;;;;;4977115;28;20211;-68
2021/06/24 03:19:15;;;;;;;20.80;15.87;;;13.60;99.90;;;;;;4982541;28;20484;-68
2021/06/24 03:21:43;;;;;;;21.63;16.23;;;13.70;99.90;;;;;;4981036;28;20203;-68
2021/06/24 03:24:12;;;;;;;20.47;16.30;;;13.70;99.90;;;;;;4973897;28;20331;-67
2021/06/24 03:26:42;;;;;;;21.23;15.77;;;13.70;99.90;;;;;;4980528;28;20180;-68
2021/06/24 03:29:11;;;;;;;23.50;15.93;;;13.70;99.90;;;;;;4981428;28;20187;-67
2021/06/24 03:31:39;;;;;;;25.07;16.47;;;13.70;99.90;;;;;;4981902;28;20183;-68
2021/06/24 03:34:07;;;;;;;20.53;15.43;;;13.70;99.90;;;;;;4974622;28;20603;-68
2021/06/24 03:36:36;;;;;;;22.03;15.50;;;13.70;99.90;;;;;;4977448;28;20207;-68
2021/06/24 03:39:05;;;;;;;19.93;15.83;;;13.80;99.90;;;;;;4974911;28;20211;-68
2021/06/24 03:41:33;;;;;;;20.70;15.83;;;13.80;99.90;;;;;;4980718;28;20226;-67
2021/06/24 03:44:03;;;;;;;19.10;14.83;;;13.80;99.90;;;;;;4970960;28;20215;-68
2021/06/24 03:46:33;;;;;;;19.63;15.10;;;13.80;99.90;;;;;;4981564;28;20191;-68
2021/06/24 03:49:01;;;;;;;24.80;15.63;;;13.80;99.90;;;;;;4980893;28;20183;-68
2021/06/24 03:51:29;;;;;;;24.03;15.27;;;13.80;99.90;;;;;;4980497;28;20183;-68
2021/06/24 03:53:58;;;;;;;21.53;14.63;;;13.80;99.90;;;;;;4981587;28;20215;-68
2021/06/24 03:56:27;;;;;;;21.83;14.80;;;13.90;99.90;;;;;;4980537;28;20207;-68
2021/06/24 03:58:55;;;;;;;21.07;14.70;;;13.90;99.90;;;;;;4982126;28;20259;-68
2021/06/24 04:01:25;;;;;;;19.27;13.90;;;13.90;99.90;;;;;;4981401;28;20243;-68
2021/06/24 04:03:54;;;;;;;17.47;13.27;;;13.90;99.90;;;;;;4978991;28;20199;-68
2021/06/24 04:06:22;;;;;;;22.77;14.77;;;14.00;99.90;;;;;;4980729;28;20207;-68
2021/06/24 04:08:51;;;;;;;25.77;14.70;;;14.00;99.90;;;;;;4977247;28;20206;-68
2021/06/24 04:11:36;;;;;;;17.70;13.80;;;14.00;99.90;;;;;;4981427;28;20254;-67
2021/06/24 04:14:05;;;;;;;14.80;12.60;;;14.00;99.90;;;;;;4981360;28;20187;-68
2021/06/24 04:16:34;;;;;;;19.17;12.70;;;14.00;99.90;;;;;;4973641;28;20282;-68
2021/06/24 04:19:03;;;;;;;19.60;14.13;;;14.00;99.90;;;;;;4977070;28;20259;-68
2021/06/24 04:21:32;;;;;;;19.60;14.43;;;14.10;99.90;;;;;;4979522;28;20582;-68
2021/06/24 04:24:00;;;;;;;18.60;13.53;;;14.10;99.90;;;;;;4981215;28;20391;-68
2021/06/24 04:26:28;;;;;;;20.97;13.10;;;14.10;99.90;;;;;;4975387;28;20196;-68
2021/06/24 04:28:57;;;;;;;19.20;13.17;;;14.10;99.90;;;;;;4979512;28;20211;-68
2021/06/24 04:31:25;;;;;;;17.30;13.70;;;14.10;99.90;;;;;;4980879;28;20206;-68
2021/06/24 04:33:56;;;;;;;16.30;12.90;;;14.20;99.90;;;;;;4979830;28;20405;-68
2021/06/24 04:36:25;;;;;;;14.93;13.30;;;14.20;99.90;;;;;;4979700;28;20211;-67
2021/06/24 04:38:53;;;;;;;19.50;13.37;;;14.20;99.90;;;;;;4982298;28;20190;-67
2021/06/24 04:41:21;;;;;;;19.90;13.03;;;14.20;99.90;;;;;;4980559;28;20192;-67
2021/06/24 04:43:50;;;;;;;18.13;13.00;;;14.20;99.90;;;;;;4981770;28;20186;-68
2021/06/24 04:46:18;;;;;;;16.53;12.60;;;14.30;99.90;;;;;;4980845;28;20179;-68
2021/06/24 04:48:46;;;;;;;16.93;12.93;;;14.30;99.90;;;;;;4978906;28;20199;-68
2021/06/24 04:51:16;;;;;;;20.00;13.23;;;14.30;99.90;;;;;;4978477;28;20186;-68
2021/06/24 04:53:44;;;;;;;15.80;12.10;;;14.30;99.90;;;;;;4979331;28;20222;-68
2021/06/24 04:56:13;;;;;;;16.83;12.77;;;14.40;99.90;;;;;;4980143;28;20203;-68
2021/06/24 04:58:41;;;;;;;16.07;13.60;;;14.40;99.90;;;;;;4979570;28;20420;-67
2021/06/24 05:01:09;;;;;;;14.73;12.03;;;14.40;99.90;;;;;;4981919;28;20187;-68
2021/06/24 05:03:40;;;;;;;18.20;12.93;;;14.40;99.90;;;;;;4981608;28;20184;-68
2021/06/24 05:06:10;;;;;;;20.77;11.93;;;14.40;99.90;;;;;;4974892;28;20197;-68
2021/06/24 05:08:40;;;;;;;17.37;12.23;;;14.40;99.90;;;;;;4978923;28;20335;-67
2021/06/24 05:11:08;;;;;;;18.47;13.33;;;14.40;99.90;;;;;;4979780;28;20496;-68
2021/06/24 05:13:37;;;;;;;21.30;13.53;;;14.50;99.90;;;;;;4979640;28;20321;-67
2021/06/24 05:16:06;;;;;;;16.37;12.33;;;14.50;99.90;;;;;;4978188;28;20187;-68
2021/06/24 05:18:36;;;;;;;18.23;12.97;;;14.50;99.90;;;;;;4973944;28;20210;-67
2021/06/24 05:21:05;;;;;;;17.97;13.30;;;14.60;99.90;;;;;;4983206;28;20208;-67
2021/06/24 05:23:33;;;;;;;20.73;13.30;;;14.60;99.90;;;;;;4983653;28;20210;-68
2021/06/24 05:26:03;;;;;;;17.17;13.23;;;14.60;99.90;;;;;;4977732;28;20223;-68
2021/06/24 05:28:32;;;;;;;19.17;12.80;;;14.60;99.90;;;;;;4977550;28;20184;-68
2021/06/24 05:31:00;;;;;;;20.60;13.20;;;14.60;99.90;;;;;;4984360;28;20182;-68
2021/06/24 05:33:29;;;;;;;14.57;12.57;;;14.60;99.90;;;;;;4981738;28;20455;-67
2021/06/24 05:35:57;;;;;;;18.20;13.83;;;14.70;99.90;;;;;;4980390;28;20224;-68
2021/06/24 05:38:29;;;;;;;17.80;13.20;;;14.70;99.90;;;;;;4983053;28;20506;-68
2021/06/24 05:40:57;;;;;;;17.50;13.07;;;14.70;99.90;;;;;;4984963;28;20194;-67
2021/06/24 05:43:27;;;;;;;16.63;12.93;;;14.70;99.90;;;;;;4984828;28;20432;-68
2021/06/24 05:45:55;;;;;;;18.70;13.30;;;14.70;99.90;;;;;;4984766;28;20207;-68
2021/06/24 05:48:24;;;;;;;14.70;12.70;;;14.80;99.90;;;;;;4983496;28;20187;-68
2021/06/24 05:50:52;;;;;;;16.60;12.57;;;14.80;99.90;;;;;;4980598;28;20332;-68
2021/06/24 05:53:20;;;;;;;21.23;13.13;;;14.80;99.90;;;;;;4980533;28;20215;-67
2021/06/24 05:55:49;;;;;;;18.87;13.63;;;14.80;99.90;;;;;;4983084;28;20192;-68
2021/06/24 05:58:19;;;;;;;22.07;13.43;;;14.80;99.90;;;;;;4983343;28;20203;-67
2021/06/24 06:00:51;;;;;;;21.10;13.27;;;14.90;99.90;;;;;;4983680;28;20272;-68
2021/06/24 06:03:20;;;;;;;16.23;13.17;;;14.90;99.90;;;;;;4983859;28;20183;-68
2021/06/24 06:05:49;;;;;;;18.83;12.77;;;14.90;99.90;;;;;;4981999;28;20199;-68
2021/06/24 06:08:19;;;;;;;14.60;11.77;;;15.00;99.90;;;;;;4982656;28;20184;-67
2021/06/24 06:10:48;;;;;;;18.57;13.07;;;15.00;99.90;;;;;;4984472;28;20276;-68
2021/06/24 06:13:19;;;;;;;15.10;12.60;;;15.00;99.90;;;;;;4982293;28;20420;-68
2021/06/24 06:15:50;;;;;;;17.57;13.07;;;15.00;99.90;;;;;;4981648;28;20198;-68
2021/06/24 06:18:20;;;;;;;16.77;13.23;;;15.00;99.90;;;;;;4978151;28;20687;-68
2021/06/24 06:20:49;;;;;;;18.50;12.93;;;15.00;99.90;;;;;;4978836;28;20188;-68
2021/06/24 06:23:20;;;;;;;17.00;13.07;;;15.00;99.90;;;;;;4982268;28;20188;-68
2021/06/24 06:25:50;;;;;;;19.63;13.83;;;15.00;99.90;;;;;;4982368;28;20200;-68
2021/06/24 06:28:19;;;;;;;21.33;13.33;;;15.10;99.90;;;;;;4982720;28;20369;-68
2021/06/24 06:30:51;;;;;;;18.33;12.30;;;15.10;99.90;;;;;;4980973;28;20219;-68
2021/06/24 06:33:21;;;;;;;18.97;13.90;;;15.20;99.90;;;;;;4980739;28;20207;-68
2021/06/24 06:35:51;;;;;;;20.60;13.33;;;15.30;99.90;;;;;;4982279;28;20188;-68
2021/06/24 06:38:19;;;;;;;17.17;12.87;;;15.40;99.90;;;;;;4975880;28;20235;-67
2021/06/24 06:40:48;;;;;;;15.87;12.50;;;15.40;99.90;;;;;;4979150;28;20417;-68
2021/06/24 06:43:18;;;;;;;19.43;13.57;;;15.50;99.90;;;;;;4982573;28;20214;-68
2021/06/24 06:45:47;;;;;;;16.00;13.60;;;15.50;99.90;;;;;;4982208;28;20194;-68
2021/06/24 06:48:17;;;;;;;20.13;13.33;;;15.60;99.90;;;;;;4983359;28;20212;-68
2021/06/24 06:50:46;;;;;;;18.27;13.67;;;15.60;99.90;;;;;;4983476;28;20239;-68
2021/06/24 06:53:15;;;;;;;15.23;12.57;;;15.70;99.90;;;;;;4983232;28;20368;-67
2021/06/24 06:55:43;;;;;;;20.10;13.77;;;15.80;99.90;;;;;;4981878;28;20248;-68
2021/06/24 06:58:12;;;;;;;17.60;12.33;;;15.90;99.90;;;;;;4974802;28;20212;-68
2021/06/24 07:00:40;;;;;;;19.17;13.70;;;15.90;99.90;;;;;;4983232;28;20352;-68
2021/06/24 07:03:09;;;;;;;20.30;13.87;;;16.00;99.90;;;;;;4972812;28;20263;-68
2021/06/24 07:05:39;;;;;;;17.70;13.63;;;16.10;99.90;;;;;;4979856;28;20183;-68
2021/06/24 07:08:07;;;;;;;18.13;12.93;;;16.10;99.90;;;;;;4982972;28;20184;-68
2021/06/24 07:10:36;;;;;;;21.83;12.93;;;16.30;99.90;;;;;;4983309;28;20207;-68
2021/06/24 07:13:04;;;;;;;15.83;12.17;;;16.60;99.90;;;;;;4982803;28;20202;-67
2021/06/24 07:15:32;;;;;;;17.30;11.60;;;16.90;99.90;;;;;;4965693;28;20235;-68
2021/06/24 07:18:01;;;;;;;18.70;12.00;;;17.20;99.90;;;;;;4977448;28;20187;-68
2021/06/24 07:20:29;;;;;;;14.23;10.90;;;17.50;99.90;;;;;;4982097;28;20187;-67
2021/06/24 07:22:59;;;;;;;13.73;11.43;;;17.50;99.90;;;;;;4981663;28;20191;-67
2021/06/24 07:25:27;;;;;;;12.83;11.17;;;17.60;99.90;;;;;;4982052;28;20190;-68
2021/06/24 07:27:56;;;;;;;13.60;11.33;;;17.60;99.90;;;;;;4981890;28;20274;-68
2021/06/24 07:30:25;;;;;;;19.90;11.30;;;17.60;99.90;;;;;;4996099;28;20210;-68
2021/06/24 07:32:53;;;;;;;12.60;11.10;;;17.60;99.90;;;;;;4970737;28;20203;-68
2021/06/24 07:35:21;;;;;;;16.73;11.63;;;17.40;99.90;;;;;;4977497;28;20182;-68
2021/06/24 07:37:50;;;;;;;17.20;12.13;;;17.40;99.90;;;;;;4978882;28;20195;-67
2021/06/24 07:40:20;;;;;;;19.57;11.37;;;17.50;99.90;;;;;;4975666;28;20219;-67
2021/06/24 07:42:48;;;;;;;17.80;11.57;;;17.60;99.90;;;;;;4981125;28;20190;-68
2021/06/24 07:45:19;;;;;;;16.40;11.37;;;17.60;99.90;;;;;;4981417;28;20202;-67
2021/06/24 07:47:47;;;;;;;15.63;11.93;;;17.60;99.90;;;;;;4981044;28;20179;-67
2021/06/24 07:50:16;;;;;;;15.67;11.70;;;17.50;99.90;;;;;;4981371;28;20179;-68
2021/06/24 07:52:44;;;;;;;14.37;11.60;;;17.60;99.90;;;;;;4978768;28;20186;-67
2021/06/24 07:55:13;;;;;;;19.50;11.90;;;17.60;99.90;;;;;;4981028;28;20187;-68
2021/06/24 07:57:44;;;;;;;12.60;11.30;;;17.70;99.90;;;;;;4980962;28;20183;-68
2021/06/24 08:00:13;;;;;;;12.97;10.93;;;17.80;99.90;;;;;;4982504;28;20231;-68
2021/06/24 08:02:41;;;;;;;17.33;11.70;;;17.90;99.90;;;;;;4981162;28;20179;-67
2021/06/24 08:05:11;;;;;;;16.23;10.90;;;18.10;99.90;;;;;;4978348;28;20211;-67
2021/06/24 08:07:44;;;;;;;14.03;10.63;;;18.10;99.90;;;;;;4980991;28;20238;-68
2021/06/24 08:10:13;;;;;;;15.87;10.57;;;18.10;99.90;;;;;;4982905;28;20443;-68
2021/06/24 08:12:43;;;;;;;14.53;10.37;;;18.20;99.90;;;;;;4982160;28;20186;-67
2021/06/24 08:15:13;;;;;;;15.77;10.47;;;18.50;99.90;;;;;;4981580;28;20239;-68
2021/06/24 08:17:45;;;;;;;18.10;10.70;;;18.70;99.90;;;;;;4981860;28;20182;-67
2021/06/24 08:20:15;;;;;;;16.23;10.60;;;18.70;99.90;;;;;;4981207;28;20356;-67
2021/06/24 08:22:45;;;;;;;11.93;10.30;;;18.70;99.90;;;;;;4979763;28;20183;-68
2021/06/24 08:25:15;;;;;;;13.97;10.53;;;18.70;99.90;;;;;;4977679;28;20214;-67
2021/06/24 08:27:44;;;;;;;10.77;9.67;;;18.70;99.90;;;;;;4977916;28;20199;-67
2021/06/24 08:30:14;;;;;;;14.60;10.73;;;19.00;99.90;;;;;;4967832;28;20215;-67
2021/06/24 08:32:44;;;;;;;16.07;10.43;;;19.20;99.90;;;;;;4968810;28;20332;-68
2021/06/24 08:35:12;;;;;;;14.07;9.83;;;19.40;99.90;;;;;;4975144;28;20184;-68
2021/06/24 08:37:42;;;;;;;13.27;10.20;;;19.40;99.90;;;;;;4974538;28;20190;-67
2021/06/24 08:40:12;;;;;;;10.90;9.83;;;19.40;99.90;;;;;;4976843;28;20258;-67
2021/06/24 08:42:40;;;;;;;11.43;9.50;;;19.40;99.90;;;;;;4972651;28;20485;-68
2021/06/24 08:45:12;;;;;;;13.47;9.90;;;19.50;99.90;;;;;;4969280;28;20265;-67
2021/06/24 08:47:44;;;;;;;10.00;9.00;;;19.60;99.90;;;;;;4980225;28;20343;-67
2021/06/24 08:50:14;;;;;;;12.73;8.97;;;19.90;99.90;;;;;;4979974;28;20436;-67
2021/06/24 08:52:47;;;;;;;13.37;9.53;;;20.00;99.90;;;;;;4972340;28;20391;-67
2021/06/24 08:55:16;;;;;;;13.87;9.20;;;20.10;99.90;;;;;;4980622;28;20191;-67
2021/06/24 08:57:44;;;;;;;14.03;9.50;;;20.10;99.90;;;;;;4985014;28;20187;-67
2021/06/24 09:00:15;;;;;;;12.33;8.83;;;20.00;99.90;;;;;;4981285;28;20218;-67
2021/06/24 09:02:46;;;;;;;12.30;8.87;;;20.00;99.90;;;;;;4985090;28;20216;-67
2021/06/24 09:05:15;;;;;;;16.57;8.83;;;19.80;99.90;;;;;;4982793;28;20183;-67
2021/06/24 09:07:51;;;;;;;9.97;9.00;;;19.70;99.90;;;;;;4979334;28;20200;-67
2021/06/24 09:10:21;;;;;;;11.50;8.67;;;19.80;99.90;;;;;;4983218;28;20194;-67
2021/06/24 09:12:55;;;;;;;13.77;8.47;;;19.90;99.90;;;;;;4985084;28;20186;-68
2021/06/24 09:15:26;;;;;;;13.67;8.67;;;19.90;99.90;;;;;;4974633;28;20231;-67
2021/06/24 09:17:54;;;;;;;10.53;8.67;;;20.10;99.90;;;;;;4981686;28;20270;-67
2021/06/24 09:20:32;;;;;;;9.97;8.30;;;20.20;99.90;;;;;;4981818;28;20227;-67
2021/06/24 09:23:09;;;;;;;9.27;7.63;;;20.30;99.90;;;;;;4981752;28;20253;-67
2021/06/24 09:25:39;;;;;;;11.57;8.03;;;20.20;99.90;;;;;;4983044;28;20210;-67
2021/06/24 09:28:08;;;;;;;10.30;8.23;;;20.30;99.90;;;;;;4980316;28;20222;-67
2021/06/24 09:30:40;;;;;;;8.53;7.57;;;20.50;99.90;;;;;;4983628;28;20195;-67
2021/06/24 09:33:10;;;;;;;9.33;8.20;;;20.80;99.90;;;;;;4983961;28;20251;-67
2021/06/24 09:35:39;;;;;;;11.10;7.77;;;20.90;99.90;;;;;;4983960;28;20332;-67
2021/06/24 09:38:09;;;;;;;16.27;7.07;;;21.10;99.90;;;;;;4984161;28;20180;-67
2021/06/24 09:40:42;;;;;;;12.50;8.53;;;21.10;99.90;;;;;;4981951;28;20235;-68
2021/06/24 09:43:17;;;;;;;9.87;7.47;;;20.90;99.90;;;;;;4984543;28;20219;-67
2021/06/24 09:48:40;;;;;;;10.33;7.50;;;20.70;99.90;;;;;;5182583;27;20574;-66
2021/06/24 09:51:17;;;;;;;8.60;6.93;;;20.80;99.90;;;;;;5176840;27;20196;-66
2021/06/24 09:53:57;;;;;;;12.57;7.60;;;20.80;99.90;;;;;;5175206;27;20242;-66
2021/06/24 09:56:32;;;;;;;10.70;8.23;;;21.00;99.90;;;;;;5157402;27;20325;-66
2021/06/24 09:59:03;;;;;;;8.43;7.60;;;21.00;99.90;;;;;;5164510;27;20197;-66
2021/06/24 10:01:36;;;;;;;11.10;7.70;;;21.20;99.90;;;;;;5166087;27;20260;-66
2021/06/24 10:04:17;;;;;;;8.43;7.37;;;20.90;99.90;;;;;;5165598;27;20186;-66
2021/06/24 10:06:46;;;;;;;9.60;7.60;;;20.90;99.90;;;;;;5157021;27;20209;-68
2021/06/24 10:09:15;;;;;;;11.43;7.63;;;20.80;99.90;;;;;;5171923;27;20646;-66
2021/06/24 10:11:43;;;;;;;8.83;7.20;;;20.70;99.90;;;;;;5169293;27;20223;-66
2021/06/24 10:14:15;;;;;;;13.70;8.33;;;20.60;99.90;;;;;;5167576;27;20257;-66
2021/06/24 10:16:49;;;;;;;14.33;8.77;;;20.40;99.90;;;;;;5164189;27;20208;-66
2021/06/24 10:19:24;;;;;;;10.17;8.23;;;20.20;99.90;;;;;;5164344;27;20189;-66
2021/06/24 10:21:55;;;;;;;12.90;8.67;;;20.00;99.90;;;;;;5171442;27;20191;-66
2021/06/24 10:24:31;;;;;;;10.47;8.60;;;19.90;99.90;;;;;;5165948;27;20731;-66
2021/06/24 10:27:07;;;;;;;12.40;9.33;;;19.90;99.90;;;;;;5162030;27;20751;-66
2021/06/24 10:29:47;;;;;;;15.57;8.93;;;19.90;99.90;;;;;;5166439;27;20199;-66
2021/06/24 10:32:31;;;;;;;12.27;9.63;;;20.00;99.90;;;;;;5164497;27;20189;-66
2021/06/24 10:35:03;;;;;;;13.10;9.70;;;20.10;99.90;;;;;;5161455;27;20185;-66
2021/06/24 10:37:33;;;;;;;16.43;9.70;;;20.10;99.90;;;;;;5165581;27;20185;-66
2021/06/24 10:40:21;;;;;;;12.70;9.80;;;20.20;99.90;;;;;;5159699;27;20197;-66
2021/06/24 10:42:52;;;;;;;14.27;9.57;;;20.10;99.90;;;;;;5164292;27;20197;-68
2021/06/24 10:45:21;;;;;;;13.13;9.97;;;20.00;99.90;;;;;;5173676;27;20237;-66
2021/06/24 10:47:50;;;;;;;12.57;10.23;;;20.00;99.90;;;;;;5170740;27;20704;-66
2021/06/24 10:50:41;;;;;;;16.83;10.03;;;20.10;99.90;;;;;;5167771;27;20233;-66
2021/06/24 10:53:40;;;;;;;13.40;10.47;;;20.10;99.90;;;;;;5164989;27;20555;-66
2021/06/24 10:56:28;;;;;;;15.57;10.63;;;20.10;99.90;;;;;;5158237;27;20242;-66
2021/06/24 10:58:58;;;;;;;16.03;10.97;;;20.30;99.90;;;;;;5153257;27;20618;-66
2021/06/24 11:01:44;;;;;;;14.80;10.27;;;20.40;99.90;;;;;;5150212;27;20659;-66
2021/06/24 11:04:30;;;;;;;20.10;9.87;;;20.50;99.90;;;;;;5151444;27;20665;-66
2021/06/24 11:07:06;;;;;;;12.30;10.07;;;20.60;99.90;;;;;;5147331;27;20213;-66
2021/06/24 11:09:35;;;;;;;18.63;10.20;;;20.60;99.90;;;;;;5151390;27;20197;-66
2021/06/24 11:12:04;;;;;;;12.30;9.77;;;20.50;99.90;;;;;;5152820;27;20192;-66
2021/06/24 11:14:57;;;;;;;14.93;10.30;;;20.50;99.90;;;;;;5145754;27;20228;-66
2021/06/24 11:17:45;;;;;;;14.83;9.27;;;20.50;99.90;;;;;;5136145;27;20197;-66
2021/06/24 11:20:19;;;;;;;10.40;9.17;;;20.50;99.90;;;;;;5170266;27;20252;-66
2021/06/24 11:22:51;;;;;;;10.23;8.33;;;20.40;99.90;;;;;;5150620;27;20238;-66
2021/06/24 11:25:20;;;;;;;11.90;8.40;;;20.50;99.90;;;;;;5150262;27;20643;-66
2021/06/24 11:27:49;;;;;;;13.23;9.03;;;20.60;99.90;;;;;;5147389;27;20205;-66
2021/06/24 11:30:56;;;;;;;10.27;8.20;;;20.60;99.90;;;;;;5154906;27;20268;-66
2021/06/24 11:33:27;;;;;;;10.50;8.00;;;20.60;99.90;;;;;;5148763;27;20197;-66
2021/06/24 11:36:09;;;;;;;14.23;8.93;;;20.70;99.90;;;;;;5158591;27;20554;-66
2021/06/24 11:38:46;;;;;;;13.53;8.93;;;20.70;99.90;;;;;;5150917;27;20185;-66
2021/06/24 11:41:17;;;;;;;11.27;8.23;;;20.50;99.90;;;;;;5150130;27;20378;-66
2021/06/24 11:44:01;;;;;;;12.20;8.97;;;20.40;99.90;;;;;;5149578;27;20289;-66
2021/06/24 11:46:31;;;;;;;11.20;8.97;;;20.30;99.90;;;;;;5154824;27;20224;-66
2021/06/24 11:49:12;;;;;;;15.00;9.90;;;20.20;99.90;;;;;;5156824;27;20220;-66
2021/06/24 12:05:51;;;;;;;12.20;9.80;;;19.80;99.90;;;;;;5125211;27;20309;-66
2021/06/24 12:08:23;;;;;;;11.33;9.70;;;19.80;99.90;;;;;;5151214;27;20201;-66
2021/06/24 12:11:06;;;;;;;10.67;9.57;;;19.80;99.90;;;;;;5156391;27;20629;-66
2021/06/24 12:13:36;;;;;;;13.47;9.57;;;19.80;99.90;;;;;;5149437;27;20189;-66
2021/06/24 12:16:06;;;;;;;11.83;9.50;;;19.70;99.90;;;;;;5158273;27;20734;-66
2021/06/24 12:18:37;;;;;;;15.50;10.17;;;19.80;99.90;;;;;;5154707;27;20186;-66
2021/06/24 12:21:07;;;;;;;15.30;10.20;;;19.80;99.90;;;;;;5147307;27;20750;-66
2021/06/24 12:23:43;;;;;;;11.90;9.63;;;19.90;99.90;;;;;;5151048;27;20604;-66
2021/06/24 12:26:15;;;;;;;15.00;10.67;;;20.00;99.90;;;;;;5151382;27;20304;-66
2021/06/24 12:28:45;;;;;;;16.03;10.93;;;20.10;99.90;;;;;;5150312;27;20316;-65
2021/06/24 12:31:21;;;;;;;13.00;10.30;;;20.20;99.90;;;;;;5152822;27;20439;-66
2021/06/24 12:33:52;;;;;;;16.47;9.97;;;20.20;99.90;;;;;;5146869;27;20563;-66
2021/06/24 12:36:32;;;;;;;19.50;12.30;;;20.50;99.90;;;;;;5148458;27;20224;-66
2021/06/24 12:39:00;;;;;;;17.23;12.33;;;20.60;99.90;;;;;;5146440;27;20189;-65
2021/06/24 12:41:30;;;;;;;19.17;15.17;;;20.70;99.90;;;;;;5146027;27;20585;-66
2021/06/24 12:44:03;;;;;;;20.20;15.60;;;20.90;99.90;;;;;;5152195;27;20247;-66
2021/06/24 12:46:37;;;;;;;18.57;14.33;;;20.90;99.90;;;;;;5147741;27;20727;-66
2021/06/24 12:49:16;;;;;;;20.50;15.90;;;20.70;99.90;;;;;;5165773;27;20205;-65
2021/06/24 12:51:45;;;;;;;16.27;12.77;;;20.60;99.90;;;;;;5152863;27;20315;-66
2021/06/24 12:54:18;;;;;;;18.37;14.23;;;20.50;99.90;;;;;;5136823;27;20190;-66
2021/06/24 12:56:50;;;;;;;20.80;14.00;;;20.40;99.90;;;;;;5162102;27;20821;-66
2021/06/24 12:59:22;;;;;;;19.33;14.13;;;20.30;99.90;;;;;;5157754;27;20222;-65
2021/06/24 13:01:52;;;;;;;17.07;12.77;;;20.30;99.90;;;;;;5161883;27;20583;-66
2021/06/24 13:04:24;;;;;;;18.50;13.80;;;20.10;99.90;;;;;;5151140;27;20192;-66